sensor_id;sensor_type;location;lat;lon;timestamp;temperature;humidity
8214;DHT22;4148;47.974;7.824;2023-02-22T00:00:43;4.80;99.90
8214;DHT22;4148;47.974;7.824;2023-02-22T00:05:54;4.80;99.90
8214;DHT22;4148;47.974;7.824;2023-02-22T00:08:25;4.80;99.90
8214;DHT22;4148;47.974;7.824;2023-02-22T00:10:56;4.90;99.90
8214;DHT22;4148;47.974;7.824;2023-02-22T00:13:24;4.90;99.90
8214;DHT22;4148;47.974;7.824;2023-02-22T00:15:55;4.90;99.90
8214;DHT22;4148;47.974;7.824;2023-02-22T00:18:23;4.70;99.90
8214;DHT22;4148;47.974;7.824;2023-02-22T00:20:55;4.50;99.90
8214;DHT22;4148;47.974;7.824;2023-02-22T00:23:27;4.40;99.90
8214;DHT22;4148;47.974;7.824;2023-02-22T00:25:57;4.30;99.90
8214;DHT22;4148;47.974;7.824;2023-02-22T00:28:25;4.20;99.90
8214;DHT22;4148;47.974;7.824;2023-02-22T00:30:53;4.30;99.90
8214;DHT22;4148;47.974;7.824;2023-02-22T00:33:21;4.30;99.90
8214;DHT22;4148;47.974;7.824;2023-02-22T00:35:49;4.10;99.90
8214;DHT22;4148;47.974;7.824;2023-02-22T00:38:18;4.00;99.90
8214;DHT22;4148;47.974;7.824;2023-02-22T00:40:46;4.00;99.90
8214;DHT22;4148;47.974;7.824;2023-02-22T00:43:14;3.90;99.90
8214;DHT22;4148;47.974;7.824;2023-02-22T00:45:42;3.90;99.90
8214;DHT22;4148;47.974;7.824;2023-02-22T00:48:10;3.90;99.90
8214;DHT22;4148;47.974;7.824;2023-02-22T00:50:38;4.00;99.90
8214;DHT22;4148;47.974;7.824;2023-02-22T00:53:06;3.90;99.90
8214;DHT22;4148;47.974;7.824;2023-02-22T00:55:39;3.90;99.90
8214;DHT22;4148;47.974;7.824;2023-02-22T00:58:07;3.80;99.90
8214;DHT22;4148;47.974;7.824;2023-02-22T01:00:36;3.80;99.90
8214;DHT22;4148;47.974;7.824;2023-02-22T01:03:05;3.80;99.90
8214;DHT22;4148;47.974;7.824;2023-02-22T01:05:34;3.70;99.90
8214;DHT22;4148;47.974;7.824;2023-02-22T01:08:04;3.70;99.90
8214;DHT22;4148;47.974;7.824;2023-02-22T01:10:34;3.70;99.90
8214;DHT22;4148;47.974;7.824;2023-02-22T01:13:03;3.50;99.90
8214;DHT22;4148;47.974;7.824;2023-02-22T01:15:35;3.50;99.90
8214;DHT22;4148;47.974;7.824;2023-02-22T01:18:04;3.40;99.90
8214;DHT22;4148;47.974;7.824;2023-02-22T01:20:32;3.70;99.90
8214;DHT22;4148;47.974;7.824;2023-02-22T01:23:01;3.70;99.90
8214;DHT22;4148;47.974;7.824;2023-02-22T01:25:32;3.70;99.90
8214;DHT22;4148;47.974;7.824;2023-02-22T01:28:04;3.80;99.90
8214;DHT22;4148;47.974;7.824;2023-02-22T01:30:33;3.70;99.90
8214;DHT22;4148;47.974;7.824;2023-02-22T01:33:03;3.60;99.90
8214;DHT22;4148;47.974;7.824;2023-02-22T01:35:32;3.60;99.90
8214;DHT22;4148;47.974;7.824;2023-02-22T01:38:01;3.80;99.90
8214;DHT22;4148;47.974;7.824;2023-02-22T01:40:30;3.90;99.90
8214;DHT22;4148;47.974;7.824;2023-02-22T01:43:00;3.80;99.90
8214;DHT22;4148;47.974;7.824;2023-02-22T01:45:54;3.90;99.90
8214;DHT22;4148;47.974;7.824;2023-02-22T01:48:29;3.90;99.90
8214;DHT22;4148;47.974;7.824;2023-02-22T01:51:01;3.80;99.90
8214;DHT22;4148;47.974;7.824;2023-02-22T01:53:32;3.90;99.90
8214;DHT22;4148;47.974;7.824;2023-02-22T01:56:02;4.00;99.90
8214;DHT22;4148;47.974;7.824;2023-02-22T01:58:32;4.10;99.90
8214;DHT22;4148;47.974;7.824;2023-02-22T02:01:04;4.00;99.90
8214;DHT22;4148;47.974;7.824;2023-02-22T02:03:35;4.00;99.90
8214;DHT22;4148;47.974;7.824;2023-02-22T02:06:07;3.90;99.90
8214;DHT22;4148;47.974;7.824;2023-02-22T02:08:44;4.00;99.90
8214;DHT22;4148;47.974;7.824;2023-02-22T02:11:18;4.10;99.90
8214;DHT22;4148;47.974;7.824;2023-02-22T02:13:48;4.10;99.90
8214;DHT22;4148;47.974;7.824;2023-02-22T02:16:17;4.10;99.90
8214;DHT22;4148;47.974;7.824;2023-02-22T02:18:47;4.10;99.90
8214;DHT22;4148;47.974;7.824;2023-02-22T02:21:41;4.10;99.90
8214;DHT22;4148;47.974;7.824;2023-02-22T02:24:47;3.90;99.90
8214;DHT22;4148;47.974;7.824;2023-02-22T02:27:19;3.90;99.90
8214;DHT22;4148;47.974;7.824;2023-02-22T02:33:05;3.70;99.90
8214;DHT22;4148;47.974;7.824;2023-02-22T02:35:46;3.80;99.90
8214;DHT22;4148;47.974;7.824;2023-02-22T02:38:23;3.80;99.90
8214;DHT22;4148;47.974;7.824;2023-02-22T02:41:02;3.90;99.90
8214;DHT22;4148;47.974;7.824;2023-02-22T02:43:36;4.00;99.90
8214;DHT22;4148;47.974;7.824;2023-02-22T02:46:08;3.90;99.90
8214;DHT22;4148;47.974;7.824;2023-02-22T02:48:41;3.90;99.90
8214;DHT22;4148;47.974;7.824;2023-02-22T02:51:10;3.80;99.90
8214;DHT22;4148;47.974;7.824;2023-02-22T02:53:43;3.80;99.90
8214;DHT22;4148;47.974;7.824;2023-02-22T02:56:11;3.90;99.90
8214;DHT22;4148;47.974;7.824;2023-02-22T02:58:44;3.70;99.90
8214;DHT22;4148;47.974;7.824;2023-02-22T03:01:19;3.70;99.90
8214;DHT22;4148;47.974;7.824;2023-02-22T03:04:01;3.70;99.90
8214;DHT22;4148;47.974;7.824;2023-02-22T03:09:39;3.70;99.90
8214;DHT22;4148;47.974;7.824;2023-02-22T03:12:18;3.50;99.90
8214;DHT22;4148;47.974;7.824;2023-02-22T03:14:53;3.70;99.90
8214;DHT22;4148;47.974;7.824;2023-02-22T03:17:30;3.50;99.90
8214;DHT22;4148;47.974;7.824;2023-02-22T03:20:09;3.40;99.90
8214;DHT22;4148;47.974;7.824;2023-02-22T03:22:41;3.40;99.90
8214;DHT22;4148;47.974;7.824;2023-02-22T03:25:16;3.40;99.90
8214;DHT22;4148;47.974;7.824;2023-02-22T03:27:48;3.30;99.90
8214;DHT22;4148;47.974;7.824;2023-02-22T03:30:22;3.40;99.90
8214;DHT22;4148;47.974;7.824;2023-02-22T03:32:55;3.40;99.90
8214;DHT22;4148;47.974;7.824;2023-02-22T03:35:32;3.40;99.90
8214;DHT22;4148;47.974;7.824;2023-02-22T03:38:03;3.40;99.90
8214;DHT22;4148;47.974;7.824;2023-02-22T03:40:38;3.50;99.90
8214;DHT22;4148;47.974;7.824;2023-02-22T03:43:12;3.40;99.90
8214;DHT22;4148;47.974;7.824;2023-02-22T03:45:42;3.40;99.90
8214;DHT22;4148;47.974;7.824;2023-02-22T03:48:20;3.30;99.90
8214;DHT22;4148;47.974;7.824;2023-02-22T03:50:51;3.20;99.90
8214;DHT22;4148;47.974;7.824;2023-02-22T03:53:19;3.10;99.90
8214;DHT22;4148;47.974;7.824;2023-02-22T03:55:49;3.00;99.90
8214;DHT22;4148;47.974;7.824;2023-02-22T03:58:21;3.00;99.90
8214;DHT22;4148;47.974;7.824;2023-02-22T04:00:49;2.90;99.90
8214;DHT22;4148;47.974;7.824;2023-02-22T04:03:19;2.90;99.90
8214;DHT22;4148;47.974;7.824;2023-02-22T04:05:47;2.90;99.90
8214;DHT22;4148;47.974;7.824;2023-02-22T04:08:16;2.90;99.90
8214;DHT22;4148;47.974;7.824;2023-02-22T04:10:44;2.80;99.90
8214;DHT22;4148;47.974;7.824;2023-02-22T04:13:12;2.80;99.90
8214;DHT22;4148;47.974;7.824;2023-02-22T04:15:40;2.80;99.90
8214;DHT22;4148;47.974;7.824;2023-02-22T04:18:08;2.80;99.90
8214;DHT22;4148;47.974;7.824;2023-02-22T04:20:36;2.70;99.90
8214;DHT22;4148;47.974;7.824;2023-02-22T04:23:04;2.90;99.90
8214;DHT22;4148;47.974;7.824;2023-02-22T04:25:33;2.90;99.90
8214;DHT22;4148;47.974;7.824;2023-02-22T04:28:01;2.90;99.90
8214;DHT22;4148;47.974;7.824;2023-02-22T04:30:28;2.80;99.90
8214;DHT22;4148;47.974;7.824;2023-02-22T04:32:56;2.70;99.90
8214;DHT22;4148;47.974;7.824;2023-02-22T04:35:24;2.70;99.90
8214;DHT22;4148;47.974;7.824;2023-02-22T04:37:52;2.60;99.90
8214;DHT22;4148;47.974;7.824;2023-02-22T04:40:20;2.70;99.90
8214;DHT22;4148;47.974;7.824;2023-02-22T04:42:49;2.80;99.90
8214;DHT22;4148;47.974;7.824;2023-02-22T04:45:17;2.80;99.90
8214;DHT22;4148;47.974;7.824;2023-02-22T04:47:45;2.80;99.90
8214;DHT22;4148;47.974;7.824;2023-02-22T04:50:13;2.80;99.90
8214;DHT22;4148;47.974;7.824;2023-02-22T04:52:41;2.70;99.90
8214;DHT22;4148;47.974;7.824;2023-02-22T04:55:09;2.80;99.90
8214;DHT22;4148;47.974;7.824;2023-02-22T04:57:37;2.90;99.90
8214;DHT22;4148;47.974;7.824;2023-02-22T05:00:07;2.90;99.90
8214;DHT22;4148;47.974;7.824;2023-02-22T05:02:37;3.10;99.90
8214;DHT22;4148;47.974;7.824;2023-02-22T05:05:06;2.90;99.90
8214;DHT22;4148;47.974;7.824;2023-02-22T05:07:34;2.80;99.90
8214;DHT22;4148;47.974;7.824;2023-02-22T05:10:02;2.80;99.90
8214;DHT22;4148;47.974;7.824;2023-02-22T05:12:30;2.70;99.90
8214;DHT22;4148;47.974;7.824;2023-02-22T05:14:57;2.70;99.90
8214;DHT22;4148;47.974;7.824;2023-02-22T05:17:26;2.70;99.90
8214;DHT22;4148;47.974;7.824;2023-02-22T05:19:54;2.80;99.90
8214;DHT22;4148;47.974;7.824;2023-02-22T05:22:22;3.00;99.90
8214;DHT22;4148;47.974;7.824;2023-02-22T05:24:50;3.00;99.90
8214;DHT22;4148;47.974;7.824;2023-02-22T05:27:19;3.00;99.90
8214;DHT22;4148;47.974;7.824;2023-02-22T05:29:47;3.10;99.90
8214;DHT22;4148;47.974;7.824;2023-02-22T05:32:15;3.10;99.90
8214;DHT22;4148;47.974;7.824;2023-02-22T05:34:44;3.30;99.90
8214;DHT22;4148;47.974;7.824;2023-02-22T05:37:12;3.20;99.90
8214;DHT22;4148;47.974;7.824;2023-02-22T05:39:40;3.10;99.90
8214;DHT22;4148;47.974;7.824;2023-02-22T05:42:07;3.00;99.90
8214;DHT22;4148;47.974;7.824;2023-02-22T05:44:35;2.90;99.90
8214;DHT22;4148;47.974;7.824;2023-02-22T05:47:03;2.80;99.90
8214;DHT22;4148;47.974;7.824;2023-02-22T05:49:31;2.60;99.90
8214;DHT22;4148;47.974;7.824;2023-02-22T05:52:00;2.50;99.90
8214;DHT22;4148;47.974;7.824;2023-02-22T05:54:28;2.40;99.90
8214;DHT22;4148;47.974;7.824;2023-02-22T05:56:55;2.40;99.90
8214;DHT22;4148;47.974;7.824;2023-02-22T05:59:23;2.40;99.90
8214;DHT22;4148;47.974;7.824;2023-02-22T06:01:51;2.40;99.90
8214;DHT22;4148;47.974;7.824;2023-02-22T06:04:19;2.40;99.90
8214;DHT22;4148;47.974;7.824;2023-02-22T06:06:47;2.50;99.90
8214;DHT22;4148;47.974;7.824;2023-02-22T06:09:16;2.50;99.90
8214;DHT22;4148;47.974;7.824;2023-02-22T06:11:43;2.50;99.90
8214;DHT22;4148;47.974;7.824;2023-02-22T06:14:11;2.50;99.90
8214;DHT22;4148;47.974;7.824;2023-02-22T06:16:39;2.50;99.90
8214;DHT22;4148;47.974;7.824;2023-02-22T06:19:07;2.70;99.90
8214;DHT22;4148;47.974;7.824;2023-02-22T06:21:35;2.70;99.90
8214;DHT22;4148;47.974;7.824;2023-02-22T06:24:03;2.60;99.90
8214;DHT22;4148;47.974;7.824;2023-02-22T06:26:32;2.60;99.90
8214;DHT22;4148;47.974;7.824;2023-02-22T06:29:00;2.60;99.90
8214;DHT22;4148;47.974;7.824;2023-02-22T06:31:27;2.60;99.90
8214;DHT22;4148;47.974;7.824;2023-02-22T06:33:57;2.60;99.90
8214;DHT22;4148;47.974;7.824;2023-02-22T06:36:25;2.50;99.90
8214;DHT22;4148;47.974;7.824;2023-02-22T06:38:52;2.50;99.90
8214;DHT22;4148;47.974;7.824;2023-02-22T06:41:22;2.50;99.90
8214;DHT22;4148;47.974;7.824;2023-02-22T06:43:51;2.50;99.90
8214;DHT22;4148;47.974;7.824;2023-02-22T06:46:19;2.50;99.90
8214;DHT22;4148;47.974;7.824;2023-02-22T06:48:47;2.60;99.90
8214;DHT22;4148;47.974;7.824;2023-02-22T06:51:17;2.60;99.90
8214;DHT22;4148;47.974;7.824;2023-02-22T06:53:45;2.60;99.90
8214;DHT22;4148;47.974;7.824;2023-02-22T06:56:12;2.70;99.90
8214;DHT22;4148;47.974;7.824;2023-02-22T06:58:40;2.70;99.90
8214;DHT22;4148;47.974;7.824;2023-02-22T07:01:09;2.90;99.90
8214;DHT22;4148;47.974;7.824;2023-02-22T07:03:37;2.90;99.90
8214;DHT22;4148;47.974;7.824;2023-02-22T07:06:06;3.10;99.90
8214;DHT22;4148;47.974;7.824;2023-02-22T07:08:34;3.30;99.90
8214;DHT22;4148;47.974;7.824;2023-02-22T07:11:02;3.40;99.90
8214;DHT22;4148;47.974;7.824;2023-02-22T07:13:30;3.50;99.90
8214;DHT22;4148;47.974;7.824;2023-02-22T07:15:58;3.60;99.90
8214;DHT22;4148;47.974;7.824;2023-02-22T07:18:27;3.80;99.90
8214;DHT22;4148;47.974;7.824;2023-02-22T07:20:56;4.00;99.90
8214;DHT22;4148;47.974;7.824;2023-02-22T07:23:25;4.10;99.90
8214;DHT22;4148;47.974;7.824;2023-02-22T07:25:53;4.20;99.90
8214;DHT22;4148;47.974;7.824;2023-02-22T07:28:21;4.40;99.90
8214;DHT22;4148;47.974;7.824;2023-02-22T07:30:49;4.40;99.90
8214;DHT22;4148;47.974;7.824;2023-02-22T07:33:16;4.50;99.90
8214;DHT22;4148;47.974;7.824;2023-02-22T07:35:47;4.60;99.90
8214;DHT22;4148;47.974;7.824;2023-02-22T07:38:18;4.70;99.90
8214;DHT22;4148;47.974;7.824;2023-02-22T07:40:46;4.80;99.90
8214;DHT22;4148;47.974;7.824;2023-02-22T07:43:16;5.00;99.90
8214;DHT22;4148;47.974;7.824;2023-02-22T07:45:45;5.20;99.90
8214;DHT22;4148;47.974;7.824;2023-02-22T07:48:14;5.30;99.90
8214;DHT22;4148;47.974;7.824;2023-02-22T07:50:43;5.40;99.90
8214;DHT22;4148;47.974;7.824;2023-02-22T07:53:14;5.50;99.90
8214;DHT22;4148;47.974;7.824;2023-02-22T07:55:42;5.70;99.90
8214;DHT22;4148;47.974;7.824;2023-02-22T07:58:12;5.80;99.90
8214;DHT22;4148;47.974;7.824;2023-02-22T08:00:41;6.10;99.90
8214;DHT22;4148;47.974;7.824;2023-02-22T08:03:12;6.30;99.90
8214;DHT22;4148;47.974;7.824;2023-02-22T08:05:41;6.60;99.90
8214;DHT22;4148;47.974;7.824;2023-02-22T08:08:09;6.80;99.90
8214;DHT22;4148;47.974;7.824;2023-02-22T08:10:38;7.00;99.90
8214;DHT22;4148;47.974;7.824;2023-02-22T08:13:07;7.00;99.90
8214;DHT22;4148;47.974;7.824;2023-02-22T08:15:36;7.10;99.90
8214;DHT22;4148;47.974;7.824;2023-02-22T08:18:07;7.20;99.90
8214;DHT22;4148;47.974;7.824;2023-02-22T08:20:36;7.30;99.90
8214;DHT22;4148;47.974;7.824;2023-02-22T08:23:05;7.40;99.90
8214;DHT22;4148;47.974;7.824;2023-02-22T08:25:33;7.50;99.90
8214;DHT22;4148;47.974;7.824;2023-02-22T08:28:05;7.60;99.90
8214;DHT22;4148;47.974;7.824;2023-02-22T08:30:34;7.80;99.90
8214;DHT22;4148;47.974;7.824;2023-02-22T08:33:05;7.90;99.90
8214;DHT22;4148;47.974;7.824;2023-02-22T08:35:33;8.00;99.90
8214;DHT22;4148;47.974;7.824;2023-02-22T08:38:03;8.20;99.90
8214;DHT22;4148;47.974;7.824;2023-02-22T08:40:33;8.40;99.90
8214;DHT22;4148;47.974;7.824;2023-02-22T08:43:03;8.70;99.90
8214;DHT22;4148;47.974;7.824;2023-02-22T08:45:32;8.90;99.90
8214;DHT22;4148;47.974;7.824;2023-02-22T08:48:00;8.90;99.90
8214;DHT22;4148;47.974;7.824;2023-02-22T08:50:30;8.90;99.90
8214;DHT22;4148;47.974;7.824;2023-02-22T08:53:01;9.10;99.90
8214;DHT22;4148;47.974;7.824;2023-02-22T08:55:32;9.20;99.90
8214;DHT22;4148;47.974;7.824;2023-02-22T08:58:01;9.30;99.90
8214;DHT22;4148;47.974;7.824;2023-02-22T09:00:32;9.50;99.90
8214;DHT22;4148;47.974;7.824;2023-02-22T09:03:00;9.80;99.90
8214;DHT22;4148;47.974;7.824;2023-02-22T09:05:28;10.10;99.90
8214;DHT22;4148;47.974;7.824;2023-02-22T09:07:57;10.50;99.90
8214;DHT22;4148;47.974;7.824;2023-02-22T09:10:27;10.70;99.90
8214;DHT22;4148;47.974;7.824;2023-02-22T09:12:56;10.80;99.90
8214;DHT22;4148;47.974;7.824;2023-02-22T09:15:27;10.90;99.90
8214;DHT22;4148;47.974;7.824;2023-02-22T09:17:56;11.10;99.90
8214;DHT22;4148;47.974;7.824;2023-02-22T09:20:24;11.30;99.90
8214;DHT22;4148;47.974;7.824;2023-02-22T09:22:52;11.40;99.90
8214;DHT22;4148;47.974;7.824;2023-02-22T09:25:21;11.60;99.90
8214;DHT22;4148;47.974;7.824;2023-02-22T09:27:50;11.90;99.90
8214;DHT22;4148;47.974;7.824;2023-02-22T09:30:22;12.10;99.90
8214;DHT22;4148;47.974;7.824;2023-02-22T09:32:51;12.60;99.90
8214;DHT22;4148;47.974;7.824;2023-02-22T09:35:21;13.20;99.90
8214;DHT22;4148;47.974;7.824;2023-02-22T09:37:54;13.70;99.90
8214;DHT22;4148;47.974;7.824;2023-02-22T09:40:22;14.20;99.90
8214;DHT22;4148;47.974;7.824;2023-02-22T09:43:01;14.80;99.90
8214;DHT22;4148;47.974;7.824;2023-02-22T09:45:33;15.40;99.90
8214;DHT22;4148;47.974;7.824;2023-02-22T09:48:06;15.70;99.90
8214;DHT22;4148;47.974;7.824;2023-02-22T09:50:51;16.00;99.90
8214;DHT22;4148;47.974;7.824;2023-02-22T09:53:24;16.60;99.90
8214;DHT22;4148;47.974;7.824;2023-02-22T09:55:58;17.10;99.90
8214;DHT22;4148;47.974;7.824;2023-02-22T09:58:31;17.00;99.90
8214;DHT22;4148;47.974;7.824;2023-02-22T10:01:11;16.90;99.90
8214;DHT22;4148;47.974;7.824;2023-02-22T10:03:48;17.00;99.90
8214;DHT22;4148;47.974;7.824;2023-02-22T10:06:21;17.30;99.90
8214;DHT22;4148;47.974;7.824;2023-02-22T10:08:51;17.40;99.90
8214;DHT22;4148;47.974;7.824;2023-02-22T10:11:34;17.90;99.90
8214;DHT22;4148;47.974;7.824;2023-02-22T10:14:14;18.10;99.90
8214;DHT22;4148;47.974;7.824;2023-02-22T10:16:51;18.40;99.90
8214;DHT22;4148;47.974;7.824;2023-02-22T10:19:26;18.00;99.90
8214;DHT22;4148;47.974;7.824;2023-02-22T10:22:20;17.90;99.90
8214;DHT22;4148;47.974;7.824;2023-02-22T10:24:56;17.80;99.90
8214;DHT22;4148;47.974;7.824;2023-02-22T10:27:30;18.00;99.90
8214;DHT22;4148;47.974;7.824;2023-02-22T10:30:03;17.80;99.90
8214;DHT22;4148;47.974;7.824;2023-02-22T10:32:53;18.10;99.90
8214;DHT22;4148;47.974;7.824;2023-02-22T10:35:26;18.40;99.90
8214;DHT22;4148;47.974;7.824;2023-02-22T10:37:57;18.70;99.90
8214;DHT22;4148;47.974;7.824;2023-02-22T10:40:26;18.70;99.90
8214;DHT22;4148;47.974;7.824;2023-02-22T10:43:01;18.20;99.90
8214;DHT22;4148;47.974;7.824;2023-02-22T10:45:30;18.00;99.90
8214;DHT22;4148;47.974;7.824;2023-02-22T10:48:02;17.60;99.90
8214;DHT22;4148;47.974;7.824;2023-02-22T10:50:36;17.60;99.90
8214;DHT22;4148;47.974;7.824;2023-02-22T10:53:07;17.50;99.90
8214;DHT22;4148;47.974;7.824;2023-02-22T10:56:08;17.90;99.90
8214;DHT22;4148;47.974;7.824;2023-02-22T10:58:48;18.30;99.90
8214;DHT22;4148;47.974;7.824;2023-02-22T11:01:21;18.40;99.90
8214;DHT22;4148;47.974;7.824;2023-02-22T11:04:02;18.50;99.90
8214;DHT22;4148;47.974;7.824;2023-02-22T11:06:33;18.70;99.90
8214;DHT22;4148;47.974;7.824;2023-02-22T11:09:10;18.70;99.90
8214;DHT22;4148;47.974;7.824;2023-02-22T11:11:41;18.70;99.90
8214;DHT22;4148;47.974;7.824;2023-02-22T11:14:10;18.40;99.90
8214;DHT22;4148;47.974;7.824;2023-02-22T11:16:41;18.10;99.90
8214;DHT22;4148;47.974;7.824;2023-02-22T11:19:17;18.00;99.90
8214;DHT22;4148;47.974;7.824;2023-02-22T11:21:47;17.70;99.90
8214;DHT22;4148;47.974;7.824;2023-02-22T11:24:18;17.40;99.90
8214;DHT22;4148;47.974;7.824;2023-02-22T11:26:49;17.30;99.90
8214;DHT22;4148;47.974;7.824;2023-02-22T11:29:19;17.20;99.90
8214;DHT22;4148;47.974;7.824;2023-02-22T11:31:49;17.20;99.90
8214;DHT22;4148;47.974;7.824;2023-02-22T11:34:30;17.00;99.90
8214;DHT22;4148;47.974;7.824;2023-02-22T11:37:14;16.90;99.90
8214;DHT22;4148;47.974;7.824;2023-02-22T11:39:43;16.80;99.90
8214;DHT22;4148;47.974;7.824;2023-02-22T11:42:22;16.70;99.90
8214;DHT22;4148;47.974;7.824;2023-02-22T11:45:07;16.50;99.90
8214;DHT22;4148;47.974;7.824;2023-02-22T11:47:35;16.60;99.90
8214;DHT22;4148;47.974;7.824;2023-02-22T11:50:21;16.80;99.90
8214;DHT22;4148;47.974;7.824;2023-02-22T11:53:02;16.40;99.90
8214;DHT22;4148;47.974;7.824;2023-02-22T11:55:34;16.40;99.90
8214;DHT22;4148;47.974;7.824;2023-02-22T11:58:29;16.50;99.90
8214;DHT22;4148;47.974;7.824;2023-02-22T12:01:04;16.20;99.90
8214;DHT22;4148;47.974;7.824;2023-02-22T12:06:42;15.70;99.90
8214;DHT22;4148;47.974;7.824;2023-02-22T12:09:17;15.60;99.90
8214;DHT22;4148;47.974;7.824;2023-02-22T12:11:58;15.60;99.90
8214;DHT22;4148;47.974;7.824;2023-02-22T12:14:36;15.70;99.90
8214;DHT22;4148;47.974;7.824;2023-02-22T12:19:48;15.30;99.90
8214;DHT22;4148;47.974;7.824;2023-02-22T12:22:20;15.40;99.90
8214;DHT22;4148;47.974;7.824;2023-02-22T12:24:55;15.40;99.90
8214;DHT22;4148;47.974;7.824;2023-02-22T12:27:39;15.30;99.90
8214;DHT22;4148;47.974;7.824;2023-02-22T12:30:14;15.40;99.90
8214;DHT22;4148;47.974;7.824;2023-02-22T12:32:46;15.50;99.90
8214;DHT22;4148;47.974;7.824;2023-02-22T12:35:20;15.30;99.90
8214;DHT22;4148;47.974;7.824;2023-02-22T12:37:53;15.30;99.90
8214;DHT22;4148;47.974;7.824;2023-02-22T12:40:28;15.20;99.90
8214;DHT22;4148;47.974;7.824;2023-02-22T12:43:01;15.10;99.90
8214;DHT22;4148;47.974;7.824;2023-02-22T12:45:35;15.00;99.90
8214;DHT22;4148;47.974;7.824;2023-02-22T12:48:19;15.00;99.90
8214;DHT22;4148;47.974;7.824;2023-02-22T12:50:52;15.10;99.90
8214;DHT22;4148;47.974;7.824;2023-02-22T12:53:25;15.00;99.90
8214;DHT22;4148;47.974;7.824;2023-02-22T12:55:59;14.90;99.90
8214;DHT22;4148;47.974;7.824;2023-02-22T12:58:31;14.90;99.90
8214;DHT22;4148;47.974;7.824;2023-02-22T13:01:10;15.00;99.90
8214;DHT22;4148;47.974;7.824;2023-02-22T13:03:40;14.90;99.90
8214;DHT22;4148;47.974;7.824;2023-02-22T13:06:20;14.80;99.90
8214;DHT22;4148;47.974;7.824;2023-02-22T13:09:05;14.90;99.90
8214;DHT22;4148;47.974;7.824;2023-02-22T13:11:40;14.90;99.90
8214;DHT22;4148;47.974;7.824;2023-02-22T13:14:29;14.80;99.90
8214;DHT22;4148;47.974;7.824;2023-02-22T13:17:02;14.80;99.90
8214;DHT22;4148;47.974;7.824;2023-02-22T13:19:39;14.80;99.90
8214;DHT22;4148;47.974;7.824;2023-02-22T13:22:12;14.80;99.90
8214;DHT22;4148;47.974;7.824;2023-02-22T13:24:51;14.90;99.90
8214;DHT22;4148;47.974;7.824;2023-02-22T13:27:26;14.90;99.90
8214;DHT22;4148;47.974;7.824;2023-02-22T13:29:58;14.80;99.90
8214;DHT22;4148;47.974;7.824;2023-02-22T13:32:37;14.80;99.90
8214;DHT22;4148;47.974;7.824;2023-02-22T13:35:22;14.70;99.90
8214;DHT22;4148;47.974;7.824;2023-02-22T13:38:08;14.60;99.90
8214;DHT22;4148;47.974;7.824;2023-02-22T13:40:55;14.50;99.90
8214;DHT22;4148;47.974;7.824;2023-02-22T13:43:42;14.60;99.90
8214;DHT22;4148;47.974;7.824;2023-02-22T13:49:33;14.50;99.90
8214;DHT22;4148;47.974;7.824;2023-02-22T13:52:06;14.40;99.90
8214;DHT22;4148;47.974;7.824;2023-02-22T13:54:39;14.40;99.90
8214;DHT22;4148;47.974;7.824;2023-02-22T13:57:18;14.30;99.90
8214;DHT22;4148;47.974;7.824;2023-02-22T13:59:46;14.30;99.90
8214;DHT22;4148;47.974;7.824;2023-02-22T14:02:33;14.30;99.90
8214;DHT22;4148;47.974;7.824;2023-02-22T14:05:42;14.20;99.90
8214;DHT22;4148;47.974;7.824;2023-02-22T14:08:38;14.20;99.90
8214;DHT22;4148;47.974;7.824;2023-02-22T14:14:15;14.20;99.90
8214;DHT22;4148;47.974;7.824;2023-02-22T14:16:44;14.20;99.90
8214;DHT22;4148;47.974;7.824;2023-02-22T14:19:31;14.20;99.90
8214;DHT22;4148;47.974;7.824;2023-02-22T14:22:02;14.10;99.90
8214;DHT22;4148;47.974;7.824;2023-02-22T14:24:41;14.10;99.90
8214;DHT22;4148;47.974;7.824;2023-02-22T14:27:10;14.10;99.90
8214;DHT22;4148;47.974;7.824;2023-02-22T14:29:48;14.00;99.90
8214;DHT22;4148;47.974;7.824;2023-02-22T14:32:17;14.10;99.90
8214;DHT22;4148;47.974;7.824;2023-02-22T14:34:49;14.10;99.90
8214;DHT22;4148;47.974;7.824;2023-02-22T14:37:23;14.10;99.90
8214;DHT22;4148;47.974;7.824;2023-02-22T14:39:56;14.10;99.90
8214;DHT22;4148;47.974;7.824;2023-02-22T14:42:30;14.10;99.90
8214;DHT22;4148;47.974;7.824;2023-02-22T14:45:03;14.00;99.90
8214;DHT22;4148;47.974;7.824;2023-02-22T14:47:42;14.00;99.90
8214;DHT22;4148;47.974;7.824;2023-02-22T14:50:18;14.00;99.90
8214;DHT22;4148;47.974;7.824;2023-02-22T14:52:59;13.90;99.90
8214;DHT22;4148;47.974;7.824;2023-02-22T14:55:30;13.90;99.90
8214;DHT22;4148;47.974;7.824;2023-02-22T14:58:03;14.00;99.90
8214;DHT22;4148;47.974;7.824;2023-02-22T15:00:39;13.90;99.90
8214;DHT22;4148;47.974;7.824;2023-02-22T15:03:17;13.80;99.90
8214;DHT22;4148;47.974;7.824;2023-02-22T15:05:45;13.80;99.90
8214;DHT22;4148;47.974;7.824;2023-02-22T15:08:17;13.80;99.90
8214;DHT22;4148;47.974;7.824;2023-02-22T15:10:53;13.70;99.90
8214;DHT22;4148;47.974;7.824;2023-02-22T15:13:23;13.70;99.90
8214;DHT22;4148;47.974;7.824;2023-02-22T15:15:55;13.70;99.90
8214;DHT22;4148;47.974;7.824;2023-02-22T15:18:29;13.70;99.90
8214;DHT22;4148;47.974;7.824;2023-02-22T15:21:03;13.70;99.90
8214;DHT22;4148;47.974;7.824;2023-02-22T15:23:41;13.70;99.90
8214;DHT22;4148;47.974;7.824;2023-02-22T15:26:16;13.70;99.90
8214;DHT22;4148;47.974;7.824;2023-02-22T15:28:44;13.50;99.90
8214;DHT22;4148;47.974;7.824;2023-02-22T15:31:16;13.50;99.90
8214;DHT22;4148;47.974;7.824;2023-02-22T15:33:44;13.60;99.90
8214;DHT22;4148;47.974;7.824;2023-02-22T15:36:14;13.40;99.90
8214;DHT22;4148;47.974;7.824;2023-02-22T15:38:48;13.30;99.90
8214;DHT22;4148;47.974;7.824;2023-02-22T15:41:24;13.30;99.90
8214;DHT22;4148;47.974;7.824;2023-02-22T15:44:05;13.30;99.90
8214;DHT22;4148;47.974;7.824;2023-02-22T15:46:48;13.20;99.90
8214;DHT22;4148;47.974;7.824;2023-02-22T15:49:20;13.20;99.90
8214;DHT22;4148;47.974;7.824;2023-02-22T15:52:02;13.20;99.90
8214;DHT22;4148;47.974;7.824;2023-02-22T15:54:41;13.20;99.90
8214;DHT22;4148;47.974;7.824;2023-02-22T15:57:14;13.20;99.90
8214;DHT22;4148;47.974;7.824;2023-02-22T15:59:46;13.00;99.90
8214;DHT22;4148;47.974;7.824;2023-02-22T16:02:35;13.00;99.90
8214;DHT22;4148;47.974;7.824;2023-02-22T16:05:06;13.00;99.90
8214;DHT22;4148;47.974;7.824;2023-02-22T16:07:38;12.90;99.90
8214;DHT22;4148;47.974;7.824;2023-02-22T16:10:25;12.90;99.90
8214;DHT22;4148;47.974;7.824;2023-02-22T16:13:07;12.90;99.90
8214;DHT22;4148;47.974;7.824;2023-02-22T16:15:53;12.70;99.90
8214;DHT22;4148;47.974;7.824;2023-02-22T16:18:25;12.70;99.90
8214;DHT22;4148;47.974;7.824;2023-02-22T16:21:01;12.70;99.90
8214;DHT22;4148;47.974;7.824;2023-02-22T16:23:29;12.60;99.90
8214;DHT22;4148;47.974;7.824;2023-02-22T16:26:25;12.70;99.90
8214;DHT22;4148;47.974;7.824;2023-02-22T16:28:55;12.70;99.90
8214;DHT22;4148;47.974;7.824;2023-02-22T16:31:25;12.60;99.90
8214;DHT22;4148;47.974;7.824;2023-02-22T16:33:54;12.60;99.90
8214;DHT22;4148;47.974;7.824;2023-02-22T16:36:35;12.50;99.90
8214;DHT22;4148;47.974;7.824;2023-02-22T16:39:05;12.50;99.90
8214;DHT22;4148;47.974;7.824;2023-02-22T16:41:34;12.50;99.90
8214;DHT22;4148;47.974;7.824;2023-02-22T16:44:02;12.50;99.90
8214;DHT22;4148;47.974;7.824;2023-02-22T16:46:33;12.50;99.90
8214;DHT22;4148;47.974;7.824;2023-02-22T16:49:01;12.50;99.90
8214;DHT22;4148;47.974;7.824;2023-02-22T16:51:34;12.50;99.90
8214;DHT22;4148;47.974;7.824;2023-02-22T16:54:05;12.40;99.90
8214;DHT22;4148;47.974;7.824;2023-02-22T16:56:38;12.40;99.90
8214;DHT22;4148;47.974;7.824;2023-02-22T16:59:09;12.40;99.90
8214;DHT22;4148;47.974;7.824;2023-02-22T17:01:37;12.30;99.90
8214;DHT22;4148;47.974;7.824;2023-02-22T17:04:12;12.30;99.90